Share

Kenai, AK

MARITIME (MWDE2719) Elev 0 ft | 60.70 °N, 151.40 °W | Change Station

Current weather conditions updated 476 days ago

Snow
Snow
34 °F
Feels Like 34 °F
N
4
Wind Variable Wind from SW
Gusts 5 mph
Sunrise 6:36 AM
Sunset 9:34 PM
Moon Waning Gibbous

Today is forecast to be Much Cooler than yesterday.

Pressure 29.39 in
Visibility 10.0 miles
Clouds Few 5500 ft
Overcast 7500 ft
Dew Point 32 °F
Humidity 90%
Rainfall -999.00 in
Snow Depth Not available.
UV 0 out of 16
Pollen Not available.
Air Quality Not available.
Flu Activity Sporadic
METAR PAEN 181053Z AUTO 00000KT 10SM FEW055 OVC075 02/00 A2939 RMK SLP953 T00170000 TSNO VIA AUTODIAL

More Conditions Fewer Conditions

Pressure 29.39 in
Visibility 10.0 miles
Clouds Few 5500 ft
Overcast 7500 ft
Dew Point 32 °F
Humidity 90%
Rainfall -999.00 in
Snow Depth Not available.
UV 0 out of 16
Pollen Not available.
Air Quality Not available.
Flu Activity Sporadic
METAR PAEN 181053Z AUTO 00000KT 10SM FEW055 OVC075 02/00 A2939 RMK SLP953 T00170000 TSNO VIA AUTODIAL

More Conditions Fewer Conditions

10-Day Forecast

Almanac

Astronomy

Apr. 18, 2014 Rise Set
Actual Time 6:36 AM AKDT 9:34 PM AKDT
Civil Twilight 5:48 AM AKDT 10:23 PM AKDT
Nautical Twilight 4:41 AM AKDT 11:31 PM AKDT
Astronomical Twilight 2:44 AM AKDT 1:46 AM AKDT
Moon 1:06 AM AKDT 8:29 AM AKDT
Length of Visible Light 16h 35m
Length of Day
14h 57m
Tomorrow will be 5m 34s longer.
Waning Gibbous, 89% of the Moon is Illuminated
Today
Waning Gibbous
Apr 22
Last Quarter
Apr 29
New
May 6
First Quarter
May 14
Full

Today's Extremes

State Highs State Lows

Community

  • SUNRISE THROUGH THE TREES.
    SUNRISE THROUGH THE TREES.
  • Dog Wood Blossoms
    Dog Wood Blossoms
  • Morning Light
    Morning Light
  • New Day
    New Day
  • Lake Michigan Sunrise
    Lake Michigan Sunrise

WunderPhotos

Upload Photos

1,702,313 photos uploaded!

Nearby

Snow Depth

Station Depth Elevation
Cooper Lake 23 in 1200 ft
Summit Creek 21 in 1400 ft
Point Mackenzie 11 in 200 ft
MF Bradley River 22 in 2300 ft
Mcneil Canyon 9 in 1320 ft

Coastal Water Temperatures

Place Temperature
No Stations Reporting

Earthquake Activity

City Distance Mag. Time & Date
No recent earthquake activity has been reported nearby.
Minimum magnitude displayed is 2.5.

Nearby Weather Stations

Station Location Temp. Windchill Dew Point Humidity Wind Precip. Elev Updated Type
Kenai, Kenai, AK 32.2 °F 32 °F 31 °F 94% SW  at  0.0 mph 0.01 in / hr 75 ft 3:19 AM AKDT Rapid Fire
RAWS SWANSON RIVER AK, Sterling, AK 37 °F 37 °F 35 °F 93% North  at  0 mph 0.00 in / hr 215 ft 1:50 AM AKDT MADIS
RAWS SOLDOTNA AKKKS AK, Soldotna, AK 34 °F 34 °F 30 °F 86% NNE  at  2 mph 0.00 in / hr 154 ft 2:27 AM AKDT MADIS

Show More Stations Show Fewer Stations

What do you think?

We're not finished. Please let us know what you like, what you don't like, and what you are still missing.